Time;durP1;ratioP1;P1;durP2;ratioP2;P2;SDS_P1;SDS_P2;PMS_P1;PMS_P2;Temp;Humidity;BMP_temperature;BMP_pressure;BME280_temperature;BME280_humidity;BME280_pressure;Samples;Min_cycle;Max_cycle;Signal;HPM_P1;HPM_P2
2022/11/02 00:00:49;;;;;;;4.22;0.90;;;;;;;;;;4871663;29;20064;-73
2022/11/02 00:03:20;;;;;;;7.10;1.00;;;;;;;;;;4872127;29;20060;-73
2022/11/02 00:05:49;;;;;;;5.13;1.10;;;;;;;;;;4871704;29;20119;-73
2022/11/02 00:08:20;;;;;;;7.50;1.25;;;;;;;;;;4872462;29;20056;-74
2022/11/02 00:10:50;;;;;;;2.83;1.42;;;;;;;;;;4874069;29;20049;-74
2022/11/02 00:13:20;;;;;;;6.07;1.10;;;;;;;;;;4875690;29;20496;-73
2022/11/02 00:15:49;;;;;;;;;;;;;;;;;;4876174;29;20056;-74
2022/11/02 00:18:20;;;;;;;2.08;0.52;;;;;;;;;;4882398;29;19935;-72
2022/11/02 00:20:51;;;;;;;4.32;1.42;;;;;;;;;;4890145;29;20057;-73
2022/11/02 00:23:22;;;;;;;2.83;1.40;;;;;;;;;;4875729;29;20523;-74
2022/11/02 00:25:54;;;;;;;5.00;1.38;;;;;;;;;;4875421;29;20068;-74
2022/11/02 00:28:27;;;;;;;5.82;1.48;;;;;;;;;;4875880;29;20052;-74
2022/11/02 00:30:58;;;;;;;5.63;1.27;;;;;;;;;;4889754;29;20555;-74
2022/11/02 00:33:27;;;;;;;;;;;;;;;;;;4890044;29;20432;-74
2022/11/02 00:35:57;;;;;;;7.63;1.45;;;;;;;;;;4874949;29;19940;-73
2022/11/02 00:38:30;;;;;;;4.47;1.58;;;;;;;;;;4889510;29;20060;-74
2022/11/02 00:41:01;;;;;;;6.82;2.20;;;;;;;;;;4874722;29;20069;-74
2022/11/02 00:43:30;;;;;;;;;;;;;;;;;;4875563;29;20056;-77
2022/11/02 00:46:00;;;;;;;4.45;0.75;;;;;;;;;;4890064;29;20284;-73
2022/11/02 00:48:31;;;;;;;4.35;1.20;;;;;;;;;;4874318;29;20061;-74
2022/11/02 00:51:02;;;;;;;2.70;1.10;;;;;;;;;;4875173;29;20052;-72
2022/11/02 00:53:32;;;;;;;3.13;1.00;;;;;;;;;;4873017;29;20061;-73
2022/11/02 00:56:01;;;;;;;;;;;;;;;;;;4874653;29;20401;-75
2022/11/02 00:58:31;;;;;;;2.58;1.00;;;;;;;;;;4889289;29;19934;-74
2022/11/02 01:01:06;;;;;;;3.63;0.98;;;;;;;;;;4888910;29;20064;-74
2022/11/02 01:03:38;;;;;;;1.83;1.05;;;;;;;;;;4888887;29;20068;-73
2022/11/02 01:06:13;;;;;;;2.13;1.02;;;;;;;;;;4872645;29;20053;-73
2022/11/02 01:08:44;;;;;;;1.80;1.02;;;;;;;;;;4887606;29;20056;-74
2022/11/02 01:11:15;;;;;;;;;;;;;;;;;;4874770;29;20048;-72
2022/11/02 01:13:45;;;;;;;4.32;1.35;;;;;;;;;;4874317;29;20383;-74
2022/11/02 01:16:18;;;;;;;5.05;1.35;;;;;;;;;;4889303;29;20610;-74
2022/11/02 01:18:54;;;;;;;4.88;1.52;;;;;;;;;;4874992;29;20057;-74
2022/11/02 01:21:25;;;;;;;4.57;0.95;;;;;;;;;;4857483;29;20061;-74
2022/11/02 01:23:56;;;;;;;3.00;1.20;;;;;;;;;;4874805;29;20057;-73
2022/11/02 01:26:25;;;;;;;5.78;1.58;;;;;;;;;;4889306;29;20061;-74
2022/11/02 01:28:56;;;;;;;6.40;1.17;;;;;;;;;;4874380;29;20045;-73
2022/11/02 01:31:25;;;;;;;1.27;0.70;;;;;;;;;;4874345;29;20041;-74
2022/11/02 01:33:55;;;;;;;;;;;;;;;;;;4889189;29;20436;-74
2022/11/02 01:36:24;;;;;;;1.80;0.85;;;;;;;;;;4874195;29;19951;-74
2022/11/02 01:38:55;;;;;;;;;;;;;;;;;;4873674;29;20427;-75
2022/11/02 01:41:24;;;;;;;5.13;1.00;;;;;;;;;;4874389;29;19924;-72
2022/11/02 01:44:00;;;;;;;4.70;0.98;;;;;;;;;;4874555;29;20049;-73
2022/11/02 01:46:41;;;;;;;2.28;0.60;;;;;;;;;;4873028;29;20430;-75
2022/11/02 01:49:17;;;;;;;5.38;0.82;;;;;;;;;;4874570;29;20111;-73
2022/11/02 01:52:06;;;;;;;2.97;1.30;;;;;;;;;;4873955;29;20056;-73
2022/11/02 01:55:00;;;;;;;4.05;1.08;;;;;;;;;;4887928;29;20067;-73
2022/11/02 01:57:32;;;;;;;3.83;0.80;;;;;;;;;;4873328;29;20413;-73
2022/11/02 02:00:09;;;;;;;1.98;0.80;;;;;;;;;;4888212;29;20053;-73
2022/11/02 02:02:59;;;;;;;4.88;1.15;;;;;;;;;;4876162;29;20068;-73
2022/11/02 02:05:32;;;;;;;5.43;1.30;;;;;;;;;;4873884;29;20057;-72
2022/11/02 02:08:06;;;;;;;;;;;;;;;;;;4888580;29;20057;-73
2022/11/02 02:10:36;;;;;;;0.60;0.50;;;;;;;;;;4873909;29;20318;-74
2022/11/02 02:13:07;;;;;;;4.18;0.73;;;;;;;;;;4871754;29;20451;-73
2022/11/02 02:15:53;;;;;;;3.92;1.13;;;;;;;;;;4888199;29;20063;-74
2022/11/02 02:18:57;;;;;;;5.85;0.95;;;;;;;;;;4887723;29;20069;-73
2022/11/02 02:21:38;;;;;;;4.55;1.00;;;;;;;;;;4873855;29;20594;-73
2022/11/02 02:24:29;;;;;;;3.35;1.17;;;;;;;;;;4873021;29;20053;-74
2022/11/02 02:27:09;;;;;;;2.47;0.80;;;;;;;;;;4873797;29;20053;-72
2022/11/02 02:29:50;;;;;;;2.15;0.90;;;;;;;;;;4873570;29;20504;-73
2022/11/02 02:32:55;;;;;;;3.97;0.70;;;;;;;;;;4871905;29;20524;-72
2022/11/02 02:35:41;;;;;;;3.78;0.80;;;;;;;;;;4873288;29;20064;-72
2022/11/02 02:38:18;;;;;;;5.65;0.75;;;;;;;;;;4873612;29;20392;-74
2022/11/02 02:41:09;;;;;;;2.38;1.00;;;;;;;;;;4872815;29;20056;-74
2022/11/02 02:43:51;;;;;;;6.57;0.98;;;;;;;;;;4887524;29;20551;-73
2022/11/02 02:46:32;;;;;;;2.75;0.80;;;;;;;;;;4872904;29;20053;-74
2022/11/02 02:49:05;;;;;;;2.50;1.08;;;;;;;;;;4887303;29;20057;-73
2022/11/02 02:51:37;;;;;;;3.88;2.00;;;;;;;;;;4872720;29;20508;-74
2022/11/02 02:54:20;;;;;;;7.25;1.17;;;;;;;;;;4886588;29;20061;-74
2022/11/02 02:56:55;;;;;;;3.55;1.10;;;;;;;;;;4871135;29;20061;-73
2022/11/02 02:59:33;;;;;;;1.75;1.10;;;;;;;;;;4873012;29;20063;-74
2022/11/02 03:02:07;;;;;;;2.70;1.08;;;;;;;;;;4889435;29;20515;-72
2022/11/02 03:04:38;;;;;;;3.25;1.15;;;;;;;;;;4879039;29;20048;-72
2022/11/02 03:07:13;;;;;;;2.78;1.20;;;;;;;;;;4888250;29;20061;-73
2022/11/02 03:09:50;;;;;;;2.58;0.90;;;;;;;;;;4887335;29;20057;-74
2022/11/02 03:12:43;;;;;;;1.85;0.75;;;;;;;;;;4887155;29;20049;-73
2022/11/02 03:15:36;;;;;;;3.67;0.90;;;;;;;;;;4887176;29;20436;-74
2022/11/02 03:18:17;;;;;;;3.63;1.17;;;;;;;;;;4872686;29;20036;-72
2022/11/02 03:21:14;;;;;;;4.32;1.02;;;;;;;;;;4873061;29;20064;-74
2022/11/02 03:24:10;;;;;;;3.22;1.23;;;;;;;;;;4871236;29;20057;-72
2022/11/02 03:27:00;;;;;;;4.70;1.25;;;;;;;;;;4886539;29;20516;-73
2022/11/02 03:29:56;;;;;;;3.85;1.13;;;;;;;;;;4871771;29;20053;-73
2022/11/02 03:32:29;;;;;;;4.13;1.02;;;;;;;;;;4886853;29;20055;-72
2022/11/02 03:35:05;;;;;;;2.45;1.33;;;;;;;;;;4886592;29;20080;-73
2022/11/02 03:37:40;;;;;;;4.70;1.20;;;;;;;;;;4872645;29;20049;-72
2022/11/02 03:40:15;;;;;;;1.58;1.00;;;;;;;;;;4887238;29;20060;-73
2022/11/02 03:42:48;;;;;;;6.85;1.27;;;;;;;;;;4872802;29;20132;-73
2022/11/02 03:45:24;;;;;;;4.10;1.27;;;;;;;;;;4889833;29;20071;-74
2022/11/02 03:48:05;;;;;;;3.55;1.10;;;;;;;;;;4876543;29;20061;-73
2022/11/02 03:50:39;;;;;;;1.85;0.90;;;;;;;;;;4890512;29;20821;-73
2022/11/02 03:53:18;;;;;;;4.18;1.10;;;;;;;;;;4890166;29;20064;-73
2022/11/02 03:55:54;;;;;;;5.15;1.25;;;;;;;;;;4890153;29;20057;-73
2022/11/02 03:58:24;;;;;;;2.67;1.27;;;;;;;;;;4875854;29;20053;-73
2022/11/02 04:00:59;;;;;;;3.42;1.17;;;;;;;;;;4875867;29;20060;-73
2022/11/02 04:03:32;;;;;;;5.28;1.40;;;;;;;;;;4875324;29;20057;-73
2022/11/02 04:06:02;;;;;;;6.25;1.50;;;;;;;;;;4875545;29;20048;-74
2022/11/02 04:08:43;;;;;;;6.53;1.60;;;;;;;;;;4890218;29;20080;-74
2022/11/02 04:19:51;;;;;;;2.20;1.20;;;;;;;;;;4890316;29;20064;-72
2022/11/02 04:25:19;;;;;;;8.32;1.70;;;;;;;;;;4890920;29;20052;-74
2022/11/02 04:28:09;;;;;;;4.43;1.30;;;;;;;;;;4883802;29;20053;-73
2022/11/02 04:30:54;;;;;;;5.80;1.45;;;;;;;;;;4890016;29;20053;-72
2022/11/02 04:33:32;;;;;;;4.75;1.23;;;;;;;;;;4889986;29;20057;-73
2022/11/02 04:36:08;;;;;;;5.18;1.38;;;;;;;;;;4890101;29;20057;-73
2022/11/02 04:38:40;;;;;;;2.55;0.98;;;;;;;;;;4889813;29;20401;-74
2022/11/02 04:44:18;;;;;;;2.28;1.20;;;;;;;;;;4889486;29;20068;-72
2022/11/02 04:46:59;;;;;;;3.33;1.17;;;;;;;;;;4889660;29;20064;-73
2022/11/02 04:49:32;;;;;;;2.65;1.08;;;;;;;;;;4890148;29;20057;-74
2022/11/02 04:52:05;;;;;;;4.45;1.40;;;;;;;;;;4889297;29;20061;-73
2022/11/02 04:54:36;;;;;;;3.53;1.40;;;;;;;;;;4888357;29;20088;-74
2022/11/02 04:57:07;;;;;;;3.08;1.30;;;;;;;;;;4875376;29;20041;-72
2022/11/02 04:59:37;;;;;;;2.78;1.38;;;;;;;;;;4889194;29;20537;-74
2022/11/02 05:02:08;;;;;;;4.05;1.42;;;;;;;;;;4889184;29;20053;-73
2022/11/02 05:04:38;;;;;;;7.07;1.60;;;;;;;;;;4889221;29;20068;-74
2022/11/02 05:07:10;;;;;;;4.05;1.35;;;;;;;;;;4889528;29;20064;-73
2022/11/02 05:09:43;;;;;;;2.03;1.30;;;;;;;;;;4874890;29;20064;-73
2022/11/02 05:12:14;;;;;;;2.05;1.50;;;;;;;;;;4889362;29;20045;-73
2022/11/02 05:14:45;;;;;;;2.15;1.30;;;;;;;;;;4875157;29;20060;-73
2022/11/02 05:17:15;;;;;;;;;;;;;;;;;;4889497;29;20064;-74
2022/11/02 05:19:45;;;;;;;5.53;1.38;;;;;;;;;;4873942;29;19931;-73
2022/11/02 05:22:14;;;;;;;4.88;1.33;;;;;;;;;;4874609;29;20499;-72
2022/11/02 05:24:44;;;;;;;7.35;1.38;;;;;;;;;;4888775;29;20064;-74
2022/11/02 05:27:14;;;;;;;;;;;;;;;;;;4889367;29;20417;-72
2022/11/02 05:29:45;;;;;;;3.08;1.27;;;;;;;;;;4888376;29;19927;-72
2022/11/02 05:32:16;;;;;;;3.85;1.40;;;;;;;;;;4888549;29;20057;-73
2022/11/02 05:34:46;;;;;;;4.47;1.10;;;;;;;;;;4888613;29;20057;-73
2022/11/02 05:37:16;;;;;;;6.13;1.50;;;;;;;;;;4874788;29;20061;-73
2022/11/02 05:39:45;;;;;;;;;;;;;;;;;;4874817;29;20379;-74
2022/11/02 05:42:18;;;;;;;5.57;1.02;;;;;;;;;;4889213;29;19945;-72
2022/11/02 05:44:48;;;;;;;4.13;1.00;;;;;;;;;;4877320;29;20397;-74
2022/11/02 05:47:18;;;;;;;6.72;1.48;;;;;;;;;;4889051;29;20061;-73
2022/11/02 05:49:48;;;;;;;2.15;1.30;;;;;;;;;;4874300;29;20053;-73
2022/11/02 05:52:18;;;;;;;4.43;1.08;;;;;;;;;;4873777;29;20060;-72
2022/11/02 05:54:48;;;;;;;3.30;1.17;;;;;;;;;;4888426;29;20056;-72
2022/11/02 05:57:18;;;;;;;4.88;1.40;;;;;;;;;;4874000;29;20052;-73
2022/11/02 05:59:48;;;;;;;5.70;1.30;;;;;;;;;;4874825;29;20507;-73
2022/11/02 06:02:17;;;;;;;3.20;1.00;;;;;;;;;;4873999;29;20045;-75
2022/11/02 06:04:53;;;;;;;4.20;1.10;;;;;;;;;;4873810;29;20075;-74
2022/11/02 06:07:23;;;;;;;2.97;1.25;;;;;;;;;;4873555;29;20511;-75
2022/11/02 06:09:52;;;;;;;2.53;1.00;;;;;;;;;;4888269;29;20122;-74
2022/11/02 06:12:22;;;;;;;2.88;1.00;;;;;;;;;;4887641;29;20056;-75
2022/11/02 06:14:52;;;;;;;5.05;1.45;;;;;;;;;;4888013;29;20052;-75
2022/11/02 06:17:22;;;;;;;2.00;0.90;;;;;;;;;;4873179;29;20045;-74
2022/11/02 06:19:51;;;;;;;;;;;;;;;;;;4874413;29;20060;-75
2022/11/02 06:22:21;;;;;;;2.97;1.10;;;;;;;;;;4873631;29;19934;-75
2022/11/02 06:24:50;;;;;;;;;;;;;;;;;;4874328;29;20079;-74
2022/11/02 06:27:20;;;;;;;3.35;1.27;;;;;;;;;;4873227;29;19931;-74
2022/11/02 06:29:50;;;;;;;5.03;1.23;;;;;;;;;;4887898;29;20056;-74
2022/11/02 06:32:20;;;;;;;4.15;1.10;;;;;;;;;;4873376;29;20060;-74
2022/11/02 06:34:49;;;;;;;;;;;;;;;;;;4873888;29;20049;-73
2022/11/02 06:37:21;;;;;;;4.22;1.10;;;;;;;;;;4873146;29;19938;-74
2022/11/02 06:39:51;;;;;;;1.10;0.93;;;;;;;;;;4873272;29;20068;-73
2022/11/02 06:42:21;;;;;;;7.88;1.67;;;;;;;;;;4873409;29;20079;-73
2022/11/02 06:44:51;;;;;;;5.18;0.90;;;;;;;;;;4873228;29;20440;-74
2022/11/02 06:47:21;;;;;;;1.77;1.20;;;;;;;;;;4873455;29;20053;-74
2022/11/02 06:49:50;;;;;;;3.03;1.02;;;;;;;;;;4873225;29;20045;-74
2022/11/02 06:52:20;;;;;;;3.10;1.02;;;;;;;;;;4873038;29;20060;-74
2022/11/02 06:54:51;;;;;;;2.33;1.15;;;;;;;;;;4872800;29;20056;-75
2022/11/02 06:57:21;;;;;;;3.03;1.00;;;;;;;;;;4873194;29;20439;-73
2022/11/02 06:59:51;;;;;;;2.08;1.20;;;;;;;;;;4873075;29;20048;-75
2022/11/02 07:02:21;;;;;;;3.53;1.52;;;;;;;;;;4872970;29;20339;-75
2022/11/02 07:04:52;;;;;;;5.78;1.48;;;;;;;;;;4872830;29;20543;-75
2022/11/02 07:07:22;;;;;;;4.15;1.05;;;;;;;;;;4872801;29;20422;-73
2022/11/02 07:09:51;;;;;;;1.33;1.02;;;;;;;;;;4873233;29;20092;-73
2022/11/02 07:12:21;;;;;;;2.60;1.27;;;;;;;;;;4872929;29;20060;-74
2022/11/02 07:14:50;;;;;;;;;;;;;;;;;;4873343;29;20053;-74
2022/11/02 07:17:20;;;;;;;2.80;1.30;;;;;;;;;;4872558;29;19927;-74
2022/11/02 07:19:50;;;;;;;1.73;1.17;;;;;;;;;;4872191;29;20060;-74
2022/11/02 07:22:20;;;;;;;2.55;1.13;;;;;;;;;;4872696;29;20805;-74
2022/11/02 07:24:50;;;;;;;10.20;1.48;;;;;;;;;;4872704;29;20049;-73
2022/11/02 07:27:20;;;;;;;;;;;;;;;;;;4873161;29;20060;-75
2022/11/02 07:29:49;;;;;;;1.52;1.13;;;;;;;;;;4872692;29;19935;-74
2022/11/02 07:32:19;;;;;;;1.70;1.23;;;;;;;;;;4872986;29;20061;-75
2022/11/02 07:34:49;;;;;;;4.82;1.17;;;;;;;;;;4872497;29;20123;-74
2022/11/02 07:37:18;;;;;;;;;;;;;;;;;;4873552;29;20076;-74
2022/11/02 07:39:48;;;;;;;2.50;1.33;;;;;;;;;;4872647;29;19935;-75
2022/11/02 07:42:17;;;;;;;2.75;1.40;;;;;;;;;;4872673;29;20702;-74
2022/11/02 07:44:50;;;;;;;5.18;1.42;;;;;;;;;;4873045;29;20053;-74
2022/11/02 07:47:20;;;;;;;2.70;1.45;;;;;;;;;;4872201;29;20049;-75
2022/11/02 07:49:50;;;;;;;3.97;1.30;;;;;;;;;;4872209;29;20057;-75
2022/11/02 07:52:19;;;;;;;;;;;;;;;;;;4872760;29;20049;-74
2022/11/02 07:54:49;;;;;;;5.65;1.38;;;;;;;;;;4872289;29;20661;-75
2022/11/02 07:57:19;;;;;;;5.45;1.92;;;;;;;;;;4872548;29;20049;-74
2022/11/02 07:59:49;;;;;;;3.63;1.73;;;;;;;;;;4872580;29;20056;-75
2022/11/02 08:02:19;;;;;;;6.40;1.83;;;;;;;;;;4872669;29;20044;-74
2022/11/02 08:04:48;;;;;;;3.97;1.50;;;;;;;;;;4871932;29;20059;-73
2022/11/02 08:07:18;;;;;;;5.20;1.80;;;;;;;;;;4872146;29;20060;-74
2022/11/02 08:09:48;;;;;;;2.75;1.65;;;;;;;;;;4872000;29;20394;-74
2022/11/02 08:12:18;;;;;;;3.10;1.65;;;;;;;;;;4872050;29;20057;-75
2022/11/02 08:14:48;;;;;;;6.55;2.08;;;;;;;;;;4872063;29;20048;-74
2022/11/02 08:17:17;;;;;;;;;;;;;;;;;;4872677;29;20057;-74
2022/11/02 08:19:47;;;;;;;5.18;1.40;;;;;;;;;;4872254;29;20489;-74
2022/11/02 08:22:16;;;;;;;4.53;1.33;;;;;;;;;;4887244;29;20523;-74
2022/11/02 08:24:46;;;;;;;6.43;1.70;;;;;;;;;;4873328;29;20056;-74
2022/11/02 08:27:16;;;;;;;3.40;1.52;;;;;;;;;;4872392;29;20439;-73
2022/11/02 08:29:45;;;;;;;;;;;;;;;;;;4886901;29;20416;-74
2022/11/02 08:32:15;;;;;;;3.17;1.30;;;;;;;;;;4876081;29;19927;-74
2022/11/02 08:34:44;;;;;;;1.98;1.33;;;;;;;;;;4875198;29;20489;-75
2022/11/02 08:37:14;;;;;;;4.85;1.77;;;;;;;;;;4875449;29;20348;-74
2022/11/02 08:39:43;;;;;;;;;;;;;;;;;;4875272;29;20424;-75
2022/11/02 08:42:13;;;;;;;3.50;1.35;;;;;;;;;;4875251;29;19924;-73
2022/11/02 08:44:43;;;;;;;2.80;1.50;;;;;;;;;;4875623;29;20053;-75
2022/11/02 08:47:14;;;;;;;2.83;1.67;;;;;;;;;;4874892;29;20053;-73
2022/11/02 08:49:45;;;;;;;4.72;1.67;;;;;;;;;;4875218;29;20064;-75
2022/11/02 08:52:16;;;;;;;3.80;1.80;;;;;;;;;;4875106;29;20045;-75
2022/11/02 08:54:45;;;;;;;5.70;1.70;;;;;;;;;;4888793;29;20061;-74
2022/11/02 08:57:16;;;;;;;4.15;2.40;;;;;;;;;;4874915;29;20057;-73
2022/11/02 08:59:45;;;;;;;8.38;2.10;;;;;;;;;;4875041;29;20064;-73
2022/11/02 09:02:16;;;;;;;9.35;2.15;;;;;;;;;;4875074;29;20048;-74
2022/11/02 09:04:46;;;;;;;3.45;1.77;;;;;;;;;;4875491;29;20059;-74
2022/11/02 09:07:15;;;;;;;3.13;1.98;;;;;;;;;;4875330;29;20515;-75
2022/11/02 09:09:46;;;;;;;6.22;2.17;;;;;;;;;;4874998;29;20052;-74
2022/11/02 09:12:16;;;;;;;6.28;1.90;;;;;;;;;;4874665;29;20060;-73
2022/11/02 09:14:46;;;;;;;11.13;2.15;;;;;;;;;;4874201;29;20073;-74
2022/11/02 09:17:15;;;;;;;3.67;2.03;;;;;;;;;;4874999;29;20056;-74
2022/11/02 09:19:45;;;;;;;5.32;1.77;;;;;;;;;;4874383;29;20049;-75
2022/11/02 09:22:15;;;;;;;5.43;1.75;;;;;;;;;;4874715;29;20061;-75
2022/11/02 09:24:44;;;;;;;6.15;1.98;;;;;;;;;;4874427;29;20516;-73
2022/11/02 09:27:14;;;;;;;6.70;2.15;;;;;;;;;;4873260;29;20053;-74
2022/11/02 09:29:44;;;;;;;6.95;2.38;;;;;;;;;;4874556;29;20049;-74
2022/11/02 09:32:14;;;;;;;6.95;1.95;;;;;;;;;;4874777;29;20414;-74
2022/11/02 09:34:46;;;;;;;9.95;2.40;;;;;;;;;;4875004;29;20052;-73
2022/11/02 09:37:16;;;;;;;6.05;2.55;;;;;;;;;;4874461;29;20512;-74
2022/11/02 09:39:45;;;;;;;;;;;;;;;;;;4875229;29;20049;-74
2022/11/02 09:42:30;;;;;;;5.18;2.20;;;;;;;;;;4873902;29;19931;-74
2022/11/02 09:45:05;;;;;;;7.47;3.05;;;;;;;;;;4873591;29;20052;-74
2022/11/02 09:47:42;;;;;;;7.63;2.75;;;;;;;;;;4874270;29;20420;-75
2022/11/02 09:50:44;;;;;;;7.95;2.63;;;;;;;;;;4873724;29;20045;-74
2022/11/02 09:53:20;;;;;;;5.38;1.92;;;;;;;;;;4873809;29;20068;-74
2022/11/02 09:55:55;;;;;;;5.88;2.65;;;;;;;;;;4874051;29;20053;-74
2022/11/02 09:58:42;;;;;;;11.07;3.00;;;;;;;;;;4873886;29;20416;-76
2022/11/02 10:01:36;;;;;;;7.60;2.92;;;;;;;;;;4873633;29;20049;-74
2022/11/02 10:04:26;;;;;;;8.13;4.22;;;;;;;;;;4874213;29;20056;-75
2022/11/02 10:07:27;;;;;;;11.38;3.92;;;;;;;;;;4873633;29;20059;-76
2022/11/02 10:10:08;;;;;;;7.95;3.05;;;;;;;;;;4873821;29;20056;-74
2022/11/02 10:13:13;;;;;;;5.28;2.50;;;;;;;;;;4873890;29;20053;-73
2022/11/02 10:16:01;;;;;;;7.07;3.10;;;;;;;;;;4873672;29;20099;-74
2022/11/02 10:18:32;;;;;;;6.80;2.75;;;;;;;;;;4874392;29;20056;-75
2022/11/02 10:21:29;;;;;;;3.42;2.45;;;;;;;;;;4873451;29;20504;-75
2022/11/02 10:24:11;;;;;;;4.93;1.80;;;;;;;;;;4874160;29;20053;-75
2022/11/02 10:26:42;;;;;;;5.55;2.45;;;;;;;;;;4873788;29;20067;-74
2022/11/02 10:29:18;;;;;;;5.70;2.10;;;;;;;;;;4873466;29;20124;-75
2022/11/02 10:31:47;;;;;;;;;;;;;;;;;;4873871;29;20048;-76
2022/11/02 10:34:25;;;;;;;5.30;1.70;;;;;;;;;;4873516;29;20305;-74
2022/11/02 10:37:31;;;;;;;4.15;1.63;;;;;;;;;;4873356;29;20044;-75
2022/11/02 10:40:32;;;;;;;3.75;1.52;;;;;;;;;;4873353;29;20057;-72
2022/11/02 10:43:26;;;;;;;4.10;1.42;;;;;;;;;;4873399;29;20063;-76
2022/11/02 10:46:22;;;;;;;3.70;1.52;;;;;;;;;;4873294;29;20053;-73
2022/11/02 10:49:29;;;;;;;3.47;1.70;;;;;;;;;;4873177;29;20045;-73
2022/11/02 10:51:59;;;;;;;6.78;1.70;;;;;;;;;;4872766;29;20064;-76
2022/11/02 10:54:29;;;;;;;8.23;2.15;;;;;;;;;;4872463;29;20057;-74
2022/11/02 10:57:12;;;;;;;3.67;1.83;;;;;;;;;;4873035;29;20052;-73
2022/11/02 10:59:43;;;;;;;7.38;1.58;;;;;;;;;;4872928;29;20048;-74
2022/11/02 11:02:14;;;;;;;7.78;1.98;;;;;;;;;;4876390;29;20060;-74
2022/11/02 11:04:43;;;;;;;6.07;1.92;;;;;;;;;;4890595;29;20585;-74
2022/11/02 11:07:19;;;;;;;3.28;1.67;;;;;;;;;;4891349;29;20491;-73
2022/11/02 11:09:56;;;;;;;2.60;1.30;;;;;;;;;;4891311;29;20044;-74
2022/11/02 11:12:39;;;;;;;5.88;1.52;;;;;;;;;;4891495;29;20060;-74
2022/11/02 11:15:32;;;;;;;6.18;1.92;;;;;;;;;;4891676;29;20049;-73
2022/11/02 11:18:20;;;;;;;4.13;1.48;;;;;;;;;;4891197;29;20048;-76
2022/11/02 11:21:10;;;;;;;7.57;2.47;;;;;;;;;;4891408;29;20053;-75
2022/11/02 11:23:40;;;;;;;5.70;2.10;;;;;;;;;;4890413;29;20522;-75
2022/11/02 11:26:27;;;;;;;4.93;1.67;;;;;;;;;;4891778;29;20053;-74
2022/11/02 11:28:58;;;;;;;6.72;2.53;;;;;;;;;;4892004;29;20059;-75
2022/11/02 11:31:29;;;;;;;4.05;2.00;;;;;;;;;;4891412;29;20056;-75
2022/11/02 11:34:00;;;;;;;4.38;1.73;;;;;;;;;;4891332;29;20059;-75
2022/11/02 11:36:33;;;;;;;7.13;1.88;;;;;;;;;;4891514;29;20415;-74
2022/11/02 11:39:20;;;;;;;5.72;1.80;;;;;;;;;;4890076;29;20081;-75
2022/11/02 11:41:50;;;;;;;6.82;2.17;;;;;;;;;;4891039;29;20103;-75
2022/11/02 11:44:21;;;;;;;5.65;1.60;;;;;;;;;;4889911;29;20045;-74
2022/11/02 11:46:56;;;;;;;6.72;1.83;;;;;;;;;;4890911;29;20427;-74
2022/11/02 11:49:34;;;;;;;4.95;1.70;;;;;;;;;;4890820;29;20427;-74
2022/11/02 11:52:31;;;;;;;5.97;1.92;;;;;;;;;;4891542;29;20057;-75
2022/11/02 11:55:22;;;;;;;6.35;1.85;;;;;;;;;;4891022;29;20155;-75
2022/11/02 11:58:18;;;;;;;4.65;1.35;;;;;;;;;;4891143;29;20490;-75
2022/11/02 12:01:11;;;;;;;6.95;1.40;;;;;;;;;;4889348;29;20053;-74
2022/11/02 12:03:52;;;;;;;5.13;1.75;;;;;;;;;;4889041;29;20064;-74
2022/11/02 12:06:49;;;;;;;4.95;1.50;;;;;;;;;;4894775;29;20048;-77
2022/11/02 12:09:49;;;;;;;4.03;1.65;;;;;;;;;;4894734;29;20052;-74
2022/11/02 12:12:30;;;;;;;4.15;1.42;;;;;;;;;;4894688;29;20054;-75
2022/11/02 12:15:08;;;;;;;3.97;1.70;;;;;;;;;;4895055;29;20063;-74
2022/11/02 12:18:10;;;;;;;4.55;1.77;;;;;;;;;;4894771;29;20055;-75
2022/11/02 12:21:04;;;;;;;4.63;1.63;;;;;;;;;;4902041;29;20052;-75
2022/11/02 12:23:40;;;;;;;5.50;1.60;;;;;;;;;;4894343;29;20049;-75
2022/11/02 12:26:25;;;;;;;3.97;1.58;;;;;;;;;;4894241;29;20049;-74
2022/11/02 12:29:20;;;;;;;2.88;1.48;;;;;;;;;;4887557;29;20064;-75
2022/11/02 12:32:17;;;;;;;2.15;0.98;;;;;;;;;;4874813;29;20056;-77
2022/11/02 12:34:57;;;;;;;4.45;1.30;;;;;;;;;;4873065;29;20056;-75
2022/11/02 12:37:49;;;;;;;;;;;;;;;;;;4874742;29;20055;-79
2022/11/02 12:40:44;;;;;;;3.25;1.10;;;;;;;;;;4874624;29;19923;-74
2022/11/02 12:43:46;;;;;;;3.35;1.00;;;;;;;;;;4874106;29;20048;-76
2022/11/02 12:46:27;;;;;;;3.33;1.00;;;;;;;;;;4873669;29;20412;-75
2022/11/02 12:49:24;;;;;;;2.67;1.00;;;;;;;;;;4874904;29;20049;-75
2022/11/02 12:52:17;;;;;;;2.38;1.02;;;;;;;;;;4875421;29;20690;-75
2022/11/02 12:54:49;;;;;;;1.88;0.80;;;;;;;;;;4874846;29;20057;-76
2022/11/02 12:57:22;;;;;;;3.38;1.05;;;;;;;;;;4875217;29;20116;-76
2022/11/02 12:59:59;;;;;;;1.75;1.40;;;;;;;;;;4874080;29;20073;-75
2022/11/02 13:02:40;;;;;;;1.42;0.90;;;;;;;;;;4875318;29;20053;-77
2022/11/02 13:05:18;;;;;;;4.72;0.80;;;;;;;;;;4875696;29;20512;-75
2022/11/02 13:08:08;;;;;;;3.63;1.00;;;;;;;;;;4874645;29;20424;-76
2022/11/02 13:10:46;;;;;;;2.10;0.63;;;;;;;;;;4872524;29;20064;-74
2022/11/02 13:13:31;;;;;;;2.72;1.23;;;;;;;;;;4874821;29;20056;-76
2022/11/02 13:16:04;;;;;;;2.53;0.80;;;;;;;;;;4873304;29;20045;-74
2022/11/02 13:18:53;;;;;;;3.53;1.00;;;;;;;;;;4874680;29;20590;-78
2022/11/02 13:21:53;;;;;;;1.95;1.13;;;;;;;;;;4874470;29;20049;-76
2022/11/02 13:24:34;;;;;;;3.55;1.10;;;;;;;;;;4874843;29;20063;-75
2022/11/02 13:27:06;;;;;;;2.67;1.13;;;;;;;;;;4874791;29;20599;-74
2022/11/02 13:30:00;;;;;;;8.07;1.20;;;;;;;;;;4874710;29;20500;-74
2022/11/02 13:32:42;;;;;;;2.13;0.82;;;;;;;;;;4873758;29;20500;-75
2022/11/02 13:35:21;;;;;;;4.47;1.45;;;;;;;;;;4873134;29;20049;-75
2022/11/02 13:38:01;;;;;;;3.15;1.50;;;;;;;;;;4874654;29;20094;-76
2022/11/02 13:40:46;;;;;;;2.75;1.05;;;;;;;;;;4874150;29;20539;-75
2022/11/02 13:43:36;;;;;;;3.75;1.20;;;;;;;;;;4873934;29;20516;-76
2022/11/02 13:46:31;;;;;;;4.38;1.20;;;;;;;;;;4874365;29;20053;-75
2022/11/02 13:49:12;;;;;;;3.78;1.45;;;;;;;;;;4888756;29;20033;-75
2022/11/02 13:52:09;;;;;;;3.00;0.93;;;;;;;;;;4882528;29;20052;-78
2022/11/02 13:54:50;;;;;;;1.65;0.60;;;;;;;;;;4874190;29;20136;-76
2022/11/02 13:57:34;;;;;;;4.82;1.70;;;;;;;;;;4873839;29;20053;-74
2022/11/02 14:00:25;;;;;;;1.50;1.08;;;;;;;;;;4873732;29;20057;-75
2022/11/02 14:02:58;;;;;;;2.90;1.02;;;;;;;;;;4873433;29;20052;-74
2022/11/02 14:05:30;;;;;;;2.13;0.90;;;;;;;;;;4873943;29;20041;-74
2022/11/02 14:08:10;;;;;;;3.92;1.00;;;;;;;;;;4872186;29;20637;-74
2022/11/02 14:10:40;;;;;;;2.42;0.85;;;;;;;;;;4873858;29;20053;-74
2022/11/02 14:13:16;;;;;;;5.20;1.13;;;;;;;;;;4874239;29;20060;-77
2022/11/02 14:15:52;;;;;;;3.38;1.20;;;;;;;;;;4882545;29;20558;-75
2022/11/02 14:18:29;;;;;;;5.70;1.00;;;;;;;;;;4892428;29;20435;-75
2022/11/02 14:21:39;;;;;;;1.92;1.00;;;;;;;;;;4890421;29;20056;-74
2022/11/02 14:24:37;;;;;;;2.67;1.00;;;;;;;;;;4890764;29;20044;-76
2022/11/02 14:27:12;;;;;;;3.63;0.85;;;;;;;;;;4891233;29;20045;-74
2022/11/02 14:29:45;;;;;;;2.25;1.33;;;;;;;;;;4891987;29;20163;-74
2022/11/02 14:33:01;;;;;;;2.55;1.00;;;;;;;;;;4892815;29;20056;-75
2022/11/02 14:35:42;;;;;;;1.23;0.70;;;;;;;;;;4901120;29;20069;-75
2022/11/02 14:38:38;;;;;;;5.97;1.65;;;;;;;;;;4892121;29;20053;-74
2022/11/02 14:41:36;;;;;;;3.78;1.20;;;;;;;;;;4892075;29;20048;-74
2022/11/02 14:44:20;;;;;;;4.40;1.20;;;;;;;;;;4891832;29;20052;-77
2022/11/02 14:47:00;;;;;;;2.95;1.27;;;;;;;;;;4892246;29;20048;-75
2022/11/02 14:49:55;;;;;;;2.55;1.20;;;;;;;;;;4891841;29;20056;-75
2022/11/02 14:52:31;;;;;;;3.65;1.20;;;;;;;;;;4891408;29;20598;-76
2022/11/02 14:55:17;;;;;;;2.55;1.00;;;;;;;;;;4891387;29;20063;-76
2022/11/02 14:57:58;;;;;;;3.60;1.40;;;;;;;;;;4891825;29;20411;-75
2022/11/02 15:00:31;;;;;;;3.22;1.10;;;;;;;;;;4891330;29;20052;-77
2022/11/02 15:03:05;;;;;;;4.63;1.58;;;;;;;;;;4889993;29;20056;-74
2022/11/02 15:05:38;;;;;;;4.47;1.25;;;;;;;;;;4890197;29;20040;-75
2022/11/02 15:08:14;;;;;;;5.78;1.40;;;;;;;;;;4891145;29;20106;-75
2022/11/02 15:10:45;;;;;;;13.20;8.95;;;;;;;;;;4891124;29;20516;-74
2022/11/02 15:13:18;;;;;;;5.60;1.40;;;;;;;;;;4891745;29;20056;-74
2022/11/02 15:15:51;;;;;;;3.45;1.08;;;;;;;;;;4891579;29;20052;-74
2022/11/02 15:18:29;;;;;;;5.80;1.40;;;;;;;;;;4891268;29;20052;-75
2022/11/02 15:21:11;;;;;;;2.45;0.98;;;;;;;;;;4891709;29;20056;-75
2022/11/02 15:23:54;;;;;;;3.00;0.90;;;;;;;;;;4891482;29;20068;-77
2022/11/02 15:26:29;;;;;;;2.92;1.10;;;;;;;;;;4893526;29;20067;-77
2022/11/02 15:29:04;;;;;;;3.90;1.30;;;;;;;;;;4892933;29;20093;-74
2022/11/02 15:31:55;;;;;;;1.55;1.02;;;;;;;;;;4894622;29;20044;-72
2022/11/02 15:34:43;;;;;;;3.00;1.10;;;;;;;;;;4889924;29;20064;-74
2022/11/02 15:37:28;;;;;;;1.90;1.00;;;;;;;;;;4889943;29;20052;-76
2022/11/02 15:40:03;;;;;;;4.88;0.90;;;;;;;;;;4892754;29;20060;-75
2022/11/02 15:43:04;;;;;;;4.75;1.05;;;;;;;;;;4895241;29;20049;-73
2022/11/02 15:45:51;;;;;;;1.25;0.90;;;;;;;;;;4895181;29;20049;-78
2022/11/02 15:49:09;;;;;;;3.85;1.10;;;;;;;;;;4894801;29;20084;-74
2022/11/02 15:51:49;;;;;;;3.05;1.13;;;;;;;;;;4894730;29;20758;-74
2022/11/02 15:55:00;;;;;;;4.22;1.08;;;;;;;;;;4894875;29;20060;-75
2022/11/02 15:57:42;;;;;;;4.28;1.30;;;;;;;;;;4895021;29;20049;-75
2022/11/02 16:00:20;;;;;;;2.83;1.10;;;;;;;;;;4894707;29;20049;-76
2022/11/02 16:02:53;;;;;;;3.95;0.90;;;;;;;;;;4894067;29;20044;-78
2022/11/02 16:05:26;;;;;;;4.22;1.10;;;;;;;;;;4894028;29;20044;-77